Time;durP1;ratioP1;P1;durP2;ratioP2;P2;SDS_P1;SDS_P2;PMS_P1;PMS_P2;Temp;Humidity;BMP_temperature;BMP_pressure;BME280_temperature;BME280_humidity;BME280_pressure;Samples;Min_cycle;Max_cycle;Signal;HPM_P1;HPM_P2
2023/08/04 00:00:15;;;;;;;1.63;0.80;;;23.60;39.50;;;;;;5154459;27;20252;-51
2023/08/04 00:02:41;;;;;;;2.03;1.10;;;23.50;39.40;;;;;;5154886;27;20407;-52
2023/08/04 00:05:08;;;;;;;2.07;1.37;;;23.50;39.40;;;;;;5154676;27;20900;-52
2023/08/04 00:07:34;;;;;;;1.60;0.90;;;23.50;39.50;;;;;;5154641;27;20450;-52
2023/08/04 00:10:00;;;;;;;2.03;0.90;;;23.50;39.40;;;;;;5154382;27;20473;-51
2023/08/04 00:12:26;;;;;;;2.50;1.00;;;23.60;39.40;;;;;;5153150;27;20829;-53
2023/08/04 00:14:52;;;;;;;1.70;1.20;;;23.50;39.40;;;;;;5154839;27;20935;-52
2023/08/04 00:17:18;;;;;;;4.33;1.87;;;23.50;39.30;;;;;;5154553;27;20707;-50
2023/08/04 00:19:44;;;;;;;1.70;1.00;;;23.50;39.40;;;;;;5154171;27;20419;-51
2023/08/04 00:22:09;;;;;;;3.00;1.73;;;23.50;39.40;;;;;;5154426;27;20411;-53
2023/08/04 00:24:35;;;;;;;1.87;1.20;;;23.50;39.50;;;;;;5154329;27;20166;-51
2023/08/04 00:27:02;;;;;;;3.03;1.30;;;23.50;39.60;;;;;;5154199;27;20165;-51
2023/08/04 00:29:28;;;;;;;2.20;1.20;;;23.50;39.60;;;;;;5154176;27;20169;-52
2023/08/04 00:31:55;;;;;;;2.73;1.20;;;23.50;39.60;;;;;;5154079;27;20508;-50
2023/08/04 00:34:21;;;;;;;2.30;1.53;;;23.60;40.50;;;;;;5154164;27;20396;-53
2023/08/04 00:36:47;;;;;;;2.53;1.17;;;23.60;39.80;;;;;;5154466;27;20487;-52
2023/08/04 00:39:16;;;;;;;1.70;1.33;;;23.60;39.90;;;;;;5153918;27;20761;-50
2023/08/04 00:41:42;;;;;;;4.20;1.07;;;23.60;39.90;;;;;;5154030;27;20893;-53
2023/08/04 00:44:09;;;;;;;1.67;1.07;;;23.60;39.90;;;;;;5154081;27;20400;-52
2023/08/04 00:46:36;;;;;;;2.50;1.10;;;23.60;39.50;;;;;;5154297;27;20407;-49
2023/08/04 00:49:03;;;;;;;2.90;1.20;;;23.60;39.50;;;;;;5153994;27;21142;-52
2023/08/04 00:51:30;;;;;;;5.40;1.83;;;23.60;40.00;;;;;;5153589;27;20544;-53
2023/08/04 00:53:56;;;;;;;3.27;1.27;;;23.60;39.90;;;;;;5153210;27;21010;-50
2023/08/04 00:56:22;;;;;;;1.70;0.90;;;23.60;39.90;;;;;;5154107;27;20403;-52
2023/08/04 00:58:48;;;;;;;1.57;0.93;;;23.60;40.10;;;;;;5153727;27;20738;-52
2023/08/04 01:01:14;;;;;;;2.90;1.13;;;23.70;40.20;;;;;;5153567;27;20201;-50
2023/08/04 01:03:41;;;;;;;1.70;0.87;;;23.70;40.20;;;;;;5153679;27;20401;-53
2023/08/04 01:06:13;;;;;;;6.23;1.10;;;23.70;39.80;;;;;;5153670;27;20540;-52
2023/08/04 01:08:42;;;;;;;2.53;1.20;;;23.80;40.10;;;;;;5153606;27;20521;-52
2023/08/04 01:11:13;;;;;;;1.37;0.80;;;23.70;40.30;;;;;;5153354;27;20451;-51
2023/08/04 01:13:42;;;;;;;2.03;1.30;;;23.70;39.90;;;;;;5153668;27;20441;-52
2023/08/04 01:16:08;;;;;;;2.40;1.23;;;23.70;40.20;;;;;;5153631;27;20504;-52
2023/08/04 01:18:34;;;;;;;2.00;1.30;;;23.70;40.20;;;;;;5153863;27;20405;-51
2023/08/04 01:21:04;;;;;;;2.70;1.10;;;23.70;40.20;;;;;;5153220;27;20498;-52
2023/08/04 01:23:31;;;;;;;1.53;0.90;;;23.80;39.90;;;;;;5153946;27;20411;-52
2023/08/04 01:25:57;;;;;;;4.17;1.50;;;23.70;40.10;;;;;;5153548;27;21053;-52
2023/08/04 01:28:24;;;;;;;2.30;1.10;;;23.70;40.30;;;;;;5153517;27;20395;-52
2023/08/04 01:30:54;;;;;;;1.80;1.23;;;23.70;40.00;;;;;;5151816;27;20505;-53
2023/08/04 01:33:21;;;;;;;1.50;1.37;;;23.70;40.00;;;;;;5153536;27;20407;-52
2023/08/04 01:35:47;;;;;;;2.20;1.33;;;23.80;40.00;;;;;;5153391;27;20459;-52
2023/08/04 01:38:13;;;;;;;1.60;1.00;;;23.70;39.90;;;;;;5153453;27;20762;-52
2023/08/04 01:40:39;;;;;;;1.40;0.90;;;23.70;40.00;;;;;;5153129;27;20192;-51
2023/08/04 01:43:05;;;;;;;1.67;1.27;;;23.70;40.30;;;;;;5153432;27;20908;-52
2023/08/04 01:45:31;;;;;;;2.10;1.30;;;23.70;40.40;;;;;;5153328;27;20410;-52
2023/08/04 01:47:57;;;;;;;1.80;0.87;;;23.70;40.20;;;;;;5153430;27;20400;-52
2023/08/04 01:50:23;;;;;;;1.80;1.13;;;23.70;40.60;;;;;;5152957;27;20947;-50
2023/08/04 01:52:48;;;;;;;1.77;1.10;;;23.60;40.70;;;;;;5153200;27;20458;-51
2023/08/04 01:55:14;;;;;;;1.50;1.10;;;23.60;40.50;;;;;;5153439;27;20174;-54
2023/08/04 01:57:40;;;;;;;2.40;1.23;;;23.60;40.50;;;;;;5151957;27;20430;-51
2023/08/04 02:00:08;;;;;;;1.60;1.30;;;23.60;40.90;;;;;;5152838;27;20485;-53
2023/08/04 02:02:34;;;;;;;2.80;1.50;;;23.50;41.00;;;;;;5153171;27;20166;-52
2023/08/04 02:04:59;;;;;;;5.40;1.43;;;23.50;41.00;;;;;;5154143;27;21037;-53
2023/08/04 02:07:25;;;;;;;2.27;1.30;;;23.50;41.00;;;;;;5157253;27;20750;-54
2023/08/04 02:09:52;;;;;;;1.93;1.13;;;23.40;41.30;;;;;;5156771;27;20690;-51
2023/08/04 02:12:18;;;;;;;3.63;1.40;;;23.40;41.30;;;;;;5156871;27;20212;-52
2023/08/04 02:14:44;;;;;;;2.50;1.20;;;23.40;41.50;;;;;;5156985;27;20932;-53
2023/08/04 02:17:12;;;;;;;2.17;1.10;;;23.30;41.80;;;;;;5156805;27;20456;-52
2023/08/04 02:19:38;;;;;;;1.77;1.10;;;23.40;41.90;;;;;;5156512;27;20269;-50
2023/08/04 02:22:04;;;;;;;1.73;1.40;;;23.40;41.90;;;;;;5156997;27;20438;-53
2023/08/04 02:24:30;;;;;;;2.60;1.50;;;23.40;42.00;;;;;;5156789;27;20464;-50
2023/08/04 02:26:55;;;;;;;1.97;1.03;;;23.40;41.80;;;;;;5156926;27;20406;-50
2023/08/04 02:29:21;;;;;;;1.80;1.20;;;23.40;41.80;;;;;;5156375;27;20174;-52
2023/08/04 02:31:47;;;;;;;2.10;1.47;;;23.40;41.70;;;;;;5156709;27;20571;-53
2023/08/04 02:34:13;;;;;;;1.70;1.10;;;23.40;42.30;;;;;;5156588;27;20479;-52
2023/08/04 02:36:39;;;;;;;4.37;1.33;;;23.40;41.50;;;;;;5156695;27;20399;-51
2023/08/04 02:39:04;;;;;;;2.93;1.77;;;23.40;41.50;;;;;;5156424;27;20170;-53
2023/08/04 02:41:30;;;;;;;1.57;1.10;;;23.40;41.50;;;;;;5156232;27;20196;-53
2023/08/04 02:43:56;;;;;;;2.33;1.30;;;23.40;41.60;;;;;;5156663;27;20185;-52
2023/08/04 02:46:25;;;;;;;1.70;1.33;;;23.40;41.60;;;;;;5156329;27;20647;-49
2023/08/04 02:48:51;;;;;;;2.13;1.27;;;23.40;41.70;;;;;;5156122;27;20904;-53
2023/08/04 02:51:17;;;;;;;2.77;1.20;;;23.30;41.80;;;;;;5156062;27;20499;-53
2023/08/04 02:53:45;;;;;;;2.80;1.83;;;23.30;41.80;;;;;;5156303;27;20749;-50
2023/08/04 02:56:17;;;;;;;4.90;1.50;;;23.30;42.20;;;;;;5156221;27;20501;-52
2023/08/04 02:58:45;;;;;;;3.37;1.90;;;23.30;42.10;;;;;;5156137;27;20487;-52
2023/08/04 03:01:12;;;;;;;1.70;1.20;;;23.30;42.00;;;;;;5155535;27;20449;-51
2023/08/04 03:03:38;;;;;;;3.20;1.83;;;23.20;42.30;;;;;;5155967;27;20407;-50
2023/08/04 03:06:04;;;;;;;1.70;1.17;;;23.20;42.40;;;;;;5156208;27;20421;-52
2023/08/04 03:08:33;;;;;;;3.20;1.60;;;23.20;42.50;;;;;;5155902;27;20400;-52
2023/08/04 03:11:00;;;;;;;1.73;1.07;;;23.20;42.60;;;;;;5155595;27;20482;-50
2023/08/04 03:13:26;;;;;;;2.30;1.37;;;23.10;42.60;;;;;;5155953;27;20407;-55
2023/08/04 03:15:57;;;;;;;1.77;1.57;;;23.10;42.70;;;;;;5155899;27;20758;-53
2023/08/04 03:18:23;;;;;;;1.50;1.20;;;23.10;42.70;;;;;;5155234;27;20550;-51
2023/08/04 03:20:49;;;;;;;2.20;1.40;;;23.10;42.90;;;;;;5155308;27;20578;-51
2023/08/04 03:23:15;;;;;;;1.50;0.93;;;23.00;43.20;;;;;;5155642;27;20395;-53
2023/08/04 03:25:41;;;;;;;3.40;1.30;;;23.00;43.30;;;;;;5155592;27;20639;-53
2023/08/04 03:28:07;;;;;;;3.53;1.03;;;23.00;43.20;;;;;;5155375;27;20431;-50
2023/08/04 03:30:33;;;;;;;2.17;0.90;;;23.00;43.60;;;;;;5155060;27;20817;-53
2023/08/04 03:32:59;;;;;;;2.33;1.60;;;23.00;43.70;;;;;;5155497;27;20206;-52
2023/08/04 03:35:25;;;;;;;2.37;1.40;;;22.90;43.70;;;;;;5154002;27;20456;-51
2023/08/04 03:37:51;;;;;;;2.07;1.33;;;22.90;43.60;;;;;;5155246;27;20219;-54
2023/08/04 03:40:16;;;;;;;2.70;2.00;;;22.90;43.80;;;;;;5155018;27;20190;-51
2023/08/04 03:42:43;;;;;;;3.20;1.60;;;22.90;43.50;;;;;;5155047;27;20176;-51
2023/08/04 03:45:09;;;;;;;2.57;1.30;;;22.90;43.20;;;;;;5155041;27;21087;-50
2023/08/04 03:47:35;;;;;;;1.90;1.23;;;22.90;43.40;;;;;;5155210;27;20414;-54
2023/08/04 03:50:05;;;;;;;2.10;1.30;;;22.90;43.50;;;;;;5154930;27;20423;-52
2023/08/04 03:52:31;;;;;;;4.00;1.50;;;22.90;43.60;;;;;;5155000;27;20562;-51
2023/08/04 03:54:57;;;;;;;2.03;1.50;;;22.90;43.50;;;;;;5154980;27;20399;-54
2023/08/04 03:57:23;;;;;;;3.23;1.77;;;22.90;43.40;;;;;;5155103;27;20494;-50
2023/08/04 03:59:51;;;;;;;2.80;1.83;;;22.90;43.90;;;;;;5154657;27;20662;-52
2023/08/04 04:02:17;;;;;;;5.40;1.70;;;23.00;43.90;;;;;;5154786;27;20896;-51
2023/08/04 04:04:43;;;;;;;2.43;1.43;;;23.00;44.00;;;;;;5154902;27;20406;-51
2023/08/04 04:07:08;;;;;;;2.03;1.37;;;23.00;43.90;;;;;;5154753;27;20407;-53
2023/08/04 04:09:34;;;;;;;2.33;1.43;;;23.00;43.90;;;;;;5154295;27;20665;-54
2023/08/04 04:12:00;;;;;;;1.50;1.00;;;23.00;43.60;;;;;;5154496;27;20284;-52
2023/08/04 04:14:26;;;;;;;2.23;1.23;;;23.10;44.50;;;;;;5154524;27;20170;-54
2023/08/04 04:16:51;;;;;;;2.07;1.23;;;23.10;43.90;;;;;;5154535;27;20162;-51
2023/08/04 04:19:17;;;;;;;4.13;1.50;;;23.10;44.00;;;;;;5154569;27;20252;-50
2023/08/04 04:21:43;;;;;;;4.43;1.50;;;23.00;44.10;;;;;;5154522;27;20181;-53
2023/08/04 04:24:09;;;;;;;1.90;1.37;;;23.10;44.20;;;;;;5154439;27;20192;-51
2023/08/04 04:26:35;;;;;;;2.33;1.70;;;23.00;43.90;;;;;;5154223;27;20407;-50
2023/08/04 04:29:01;;;;;;;2.10;1.40;;;23.10;43.80;;;;;;5153621;27;20200;-51
2023/08/04 04:31:27;;;;;;;1.80;1.60;;;23.10;44.50;;;;;;5152675;27;20701;-52
2023/08/04 04:33:52;;;;;;;4.77;1.80;;;23.10;44.70;;;;;;5154343;27;20185;-51
2023/08/04 04:36:18;;;;;;;2.13;1.17;;;23.10;44.70;;;;;;5154179;27;20486;-55
2023/08/04 04:38:44;;;;;;;2.90;1.50;;;23.10;44.90;;;;;;5154111;27;20197;-52
2023/08/04 04:41:10;;;;;;;2.90;1.10;;;23.10;45.30;;;;;;5153935;27;20284;-51
2023/08/04 04:43:37;;;;;;;2.10;1.50;;;23.10;45.30;;;;;;5154031;27;20176;-54
2023/08/04 04:46:03;;;;;;;2.17;1.73;;;23.10;45.50;;;;;;5153961;27;20411;-51
2023/08/04 04:48:29;;;;;;;2.40;1.47;;;23.20;45.70;;;;;;5154146;27;20776;-51
2023/08/04 04:50:55;;;;;;;4.30;1.30;;;23.20;45.30;;;;;;5153527;27;20423;-54
2023/08/04 04:53:21;;;;;;;3.13;1.23;;;23.20;45.30;;;;;;5153900;27;20761;-53
2023/08/04 04:55:47;;;;;;;4.10;1.80;;;23.20;45.30;;;;;;5154006;27;20403;-51
2023/08/04 04:58:14;;;;;;;1.90;1.60;;;23.20;45.00;;;;;;5152550;27;20403;-52
2023/08/04 05:00:40;;;;;;;3.53;2.27;;;23.20;45.00;;;;;;5153457;27;20474;-54
2023/08/04 05:03:10;;;;;;;2.77;1.47;;;23.30;44.80;;;;;;5153779;27;20750;-52
2023/08/04 05:05:37;;;;;;;1.63;1.20;;;23.30;44.70;;;;;;5153846;27;20407;-50
2023/08/04 05:08:03;;;;;;;3.33;1.53;;;23.30;44.80;;;;;;5153680;27;20766;-52
2023/08/04 05:10:28;;;;;;;2.27;1.70;;;23.30;44.60;;;;;;5153473;27;20435;-51
2023/08/04 05:12:54;;;;;;;2.87;1.30;;;23.30;44.10;;;;;;5153618;27;20873;-53
2023/08/04 05:15:20;;;;;;;2.43;1.20;;;23.30;44.10;;;;;;5153646;27;20399;-53
2023/08/04 05:17:46;;;;;;;3.53;1.60;;;23.30;44.20;;;;;;5153645;27;20215;-50
2023/08/04 05:20:13;;;;;;;3.00;1.70;;;23.30;44.30;;;;;;5153580;27;20423;-52
2023/08/04 05:22:43;;;;;;;3.30;1.60;;;23.40;44.40;;;;;;5153527;27;20178;-52
2023/08/04 05:25:09;;;;;;;2.83;1.63;;;23.40;44.70;;;;;;5153805;27;20411;-51
2023/08/04 05:27:35;;;;;;;3.73;1.53;;;23.40;44.60;;;;;;5153495;27;20411;-54
2023/08/04 05:30:01;;;;;;;5.30;1.97;;;23.40;44.70;;;;;;5153166;27;20506;-54
2023/08/04 05:32:27;;;;;;;3.17;1.73;;;23.50;44.70;;;;;;5153353;27;20447;-51
2023/08/04 05:34:53;;;;;;;2.97;1.40;;;23.50;44.50;;;;;;5153458;27;20399;-52
2023/08/04 05:37:19;;;;;;;1.77;1.20;;;23.50;44.10;;;;;;5153420;27;20410;-53
2023/08/04 05:39:45;;;;;;;4.27;1.60;;;23.50;43.60;;;;;;5154047;27;20194;-52
2023/08/04 05:42:11;;;;;;;1.80;1.40;;;23.60;44.00;;;;;;5157496;27;20233;-52
2023/08/04 05:44:36;;;;;;;2.60;1.53;;;23.60;43.30;;;;;;5157470;27;20170;-50
2023/08/04 05:47:02;;;;;;;2.00;1.50;;;23.50;43.30;;;;;;5157527;27;20763;-53
2023/08/04 05:49:32;;;;;;;3.30;2.00;;;23.60;43.60;;;;;;5157427;27;20206;-53
2023/08/04 05:51:58;;;;;;;3.03;1.70;;;23.60;43.70;;;;;;5157258;27;20447;-49
2023/08/04 05:54:24;;;;;;;4.73;1.60;;;23.60;43.40;;;;;;5157714;27;20415;-52
2023/08/04 05:56:50;;;;;;;2.13;1.40;;;23.60;43.40;;;;;;5157286;27;20403;-53
2023/08/04 05:59:16;;;;;;;2.13;1.40;;;23.70;43.00;;;;;;5156918;27;20665;-51
2023/08/04 06:01:42;;;;;;;3.00;0.93;;;23.60;43.20;;;;;;5157214;27;20177;-52
2023/08/04 06:04:07;;;;;;;3.13;1.50;;;23.70;43.40;;;;;;5157079;27;20198;-54
2023/08/04 06:06:33;;;;;;;2.67;1.50;;;23.70;43.30;;;;;;5157203;27;20199;-51
2023/08/04 06:08:59;;;;;;;2.40;1.40;;;23.70;43.50;;;;;;5157030;27;20531;-51
2023/08/04 06:11:25;;;;;;;1.73;1.47;;;23.70;43.40;;;;;;5156601;27;20200;-54
2023/08/04 06:13:51;;;;;;;2.10;1.70;;;23.70;43.70;;;;;;5157071;27;20166;-53
2023/08/04 06:16:17;;;;;;;3.97;1.80;;;23.70;43.60;;;;;;5156878;27;20436;-51
2023/08/04 06:18:43;;;;;;;2.60;1.70;;;23.80;43.70;;;;;;5156919;27;20491;-51
2023/08/04 06:21:09;;;;;;;2.20;1.53;;;23.80;43.50;;;;;;5156473;27;20678;-53
2023/08/04 06:23:35;;;;;;;2.63;1.90;;;23.80;43.60;;;;;;5156841;27;20490;-53
2023/08/04 06:26:01;;;;;;;1.70;1.40;;;23.80;43.60;;;;;;5156745;27;20172;-51
2023/08/04 06:28:26;;;;;;;2.40;1.80;;;23.80;43.70;;;;;;5156839;27;20170;-51
2023/08/04 06:30:52;;;;;;;2.17;1.63;;;23.80;44.20;;;;;;5156215;27;20185;-53
2023/08/04 06:33:21;;;;;;;2.27;2.00;;;23.80;44.40;;;;;;5155476;27;20166;-52
2023/08/04 06:35:47;;;;;;;2.10;1.70;;;23.80;44.50;;;;;;5156390;27;20923;-51
2023/08/04 06:38:12;;;;;;;2.20;1.60;;;23.70;44.90;;;;;;5156782;27;20411;-53
2023/08/04 06:40:40;;;;;;;4.60;2.47;;;23.70;45.10;;;;;;5156083;27;20419;-53
2023/08/04 06:43:06;;;;;;;3.30;1.70;;;23.70;45.60;;;;;;5156383;27;20170;-52
2023/08/04 06:45:32;;;;;;;3.10;2.40;;;23.70;45.90;;;;;;5155418;27;20411;-51
2023/08/04 06:47:58;;;;;;;3.07;2.00;;;23.70;46.20;;;;;;5156320;27;20904;-53
2023/08/04 06:50:24;;;;;;;2.40;1.83;;;23.70;46.30;;;;;;5155922;27;20555;-52
2023/08/04 06:52:51;;;;;;;2.17;1.93;;;23.70;46.20;;;;;;5155113;27;20718;-50
2023/08/04 06:55:17;;;;;;;1.77;1.60;;;23.60;46.50;;;;;;5156149;27;20406;-51
2023/08/04 06:57:43;;;;;;;2.80;1.83;;;23.60;46.40;;;;;;5156190;27;20783;-54
2023/08/04 07:00:09;;;;;;;1.87;1.37;;;23.60;46.50;;;;;;5155716;27;20776;-51
2023/08/04 07:02:35;;;;;;;2.50;2.30;;;23.70;46.70;;;;;;5155905;27;20162;-52
2023/08/04 07:05:00;;;;;;;2.83;2.57;;;23.60;46.90;;;;;;5155947;27;20426;-54
2023/08/04 07:07:26;;;;;;;2.53;2.10;;;23.70;46.80;;;;;;5155966;27;20170;-54
2023/08/04 07:09:52;;;;;;;4.43;2.00;;;23.70;46.70;;;;;;5155543;27;20403;-51
2023/08/04 07:12:18;;;;;;;3.20;2.90;;;23.70;47.00;;;;;;5155903;27;20284;-50
2023/08/04 07:14:44;;;;;;;3.20;2.10;;;23.80;47.20;;;;;;5137280;27;20565;-50
2023/08/04 07:17:09;;;;;;;2.80;2.00;;;23.80;47.00;;;;;;5155703;27;20412;-51
2023/08/04 07:19:35;;;;;;;2.43;2.23;;;23.90;47.10;;;;;;5155275;27;20162;-53
2023/08/04 07:22:01;;;;;;;3.43;2.13;;;23.90;46.80;;;;;;5155674;27;20170;-51
2023/08/04 07:24:29;;;;;;;2.90;2.33;;;23.90;47.10;;;;;;5155509;27;20169;-54
2023/08/04 07:26:55;;;;;;;2.60;1.93;;;23.90;46.90;;;;;;5155629;27;20410;-54
2023/08/04 07:29:21;;;;;;;3.20;2.40;;;23.90;47.00;;;;;;5153916;27;20772;-52
2023/08/04 07:31:47;;;;;;;2.07;1.87;;;23.90;47.10;;;;;;5155260;27;20573;-52
2023/08/04 07:34:13;;;;;;;2.10;1.90;;;23.90;46.60;;;;;;5155692;27;20427;-52
2023/08/04 07:36:39;;;;;;;2.53;1.90;;;24.00;46.60;;;;;;5155371;27;20395;-50
2023/08/04 07:39:04;;;;;;;3.73;1.77;;;23.90;46.70;;;;;;5155311;27;20186;-51
2023/08/04 07:41:30;;;;;;;4.10;1.60;;;23.90;46.80;;;;;;5155180;27;20689;-54
2023/08/04 07:43:56;;;;;;;2.77;2.20;;;23.90;46.80;;;;;;5155232;27;20165;-53
2023/08/04 07:46:27;;;;;;;3.10;2.00;;;24.00;46.70;;;;;;5155301;27;20193;-53
2023/08/04 07:48:53;;;;;;;3.23;2.03;;;24.00;46.60;;;;;;5155311;27;20174;-53
2023/08/04 07:51:20;;;;;;;2.13;1.83;;;24.00;46.90;;;;;;5154702;27;21071;-49
2023/08/04 07:53:46;;;;;;;2.37;2.07;;;24.00;46.90;;;;;;5154956;27;20449;-53
2023/08/04 07:56:12;;;;;;;3.10;2.80;;;24.00;47.00;;;;;;5155066;27;20472;-53
2023/08/04 07:58:38;;;;;;;3.47;3.20;;;24.00;46.80;;;;;;5155131;27;20403;-50
2023/08/04 08:01:04;;;;;;;2.80;2.60;;;23.90;47.00;;;;;;5154347;27;20538;-51
2023/08/04 08:03:34;;;;;;;4.80;3.27;;;23.90;47.30;;;;;;5154645;27;20819;-51
2023/08/04 08:06:01;;;;;;;3.70;2.73;;;23.90;47.60;;;;;;5154735;27;20396;-53
2023/08/04 08:08:27;;;;;;;3.00;2.30;;;23.90;47.20;;;;;;5154661;27;20392;-53
2023/08/04 08:10:54;;;;;;;3.00;2.70;;;24.00;47.20;;;;;;5154299;27;20434;-50
2023/08/04 08:13:21;;;;;;;3.43;2.80;;;24.00;47.20;;;;;;5154638;27;20859;-52
2023/08/04 08:15:47;;;;;;;5.23;3.30;;;24.00;47.20;;;;;;5153082;27;20810;-52
2023/08/04 08:18:13;;;;;;;2.90;2.60;;;24.00;47.30;;;;;;5154508;27;20395;-49
2023/08/04 08:20:40;;;;;;;4.13;3.57;;;24.10;47.60;;;;;;5154228;27;20468;-53
2023/08/04 08:23:06;;;;;;;3.53;3.20;;;24.10;47.00;;;;;;5154510;27;20410;-53
2023/08/04 08:25:33;;;;;;;4.40;3.50;;;24.20;46.60;;;;;;5154504;27;20399;-51
2023/08/04 08:27:59;;;;;;;3.13;2.83;;;24.20;46.40;;;;;;5154314;27;20400;-54
2023/08/04 08:30:25;;;;;;;5.43;3.50;;;24.20;46.60;;;;;;5154278;27;20415;-52
2023/08/04 08:32:50;;;;;;;5.97;3.87;;;24.30;46.90;;;;;;5154233;27;20777;-52
2023/08/04 08:35:16;;;;;;;5.90;3.73;;;24.30;47.40;;;;;;5154208;27;20173;-52
2023/08/04 08:37:42;;;;;;;3.90;3.17;;;24.40;46.70;;;;;;5154235;27;20158;-54
2023/08/04 08:40:09;;;;;;;3.40;3.10;;;24.50;46.70;;;;;;5153907;27;20523;-51
2023/08/04 08:42:35;;;;;;;4.17;3.20;;;24.70;46.70;;;;;;5154002;27;20172;-51
2023/08/04 08:45:05;;;;;;;4.73;3.07;;;24.80;45.70;;;;;;5154330;27;20400;-53
2023/08/04 08:47:38;;;;;;;10.83;4.13;;;24.80;45.90;;;;;;5154241;27;20414;-52
2023/08/04 08:50:06;;;;;;;4.80;2.97;;;25.00;46.00;;;;;;5153700;27;20514;-53
2023/08/04 08:52:37;;;;;;;5.57;3.73;;;25.10;45.80;;;;;;5153726;27;20831;-51
2023/08/04 08:55:04;;;;;;;4.50;3.50;;;25.20;45.10;;;;;;5153947;27;20375;-51
2023/08/04 08:57:31;;;;;;;6.73;4.20;;;25.30;45.00;;;;;;5154076;27;20435;-53
2023/08/04 08:59:58;;;;;;;3.57;3.23;;;25.40;45.70;;;;;;5153453;27;20475;-53
2023/08/04 09:02:25;;;;;;;5.63;4.07;;;25.60;43.60;;;;;;5153673;27;20400;-50
2023/08/04 09:04:51;;;;;;;5.77;3.50;;;25.70;43.10;;;;;;5153743;27;20398;-50
2023/08/04 09:07:17;;;;;;;6.53;3.87;;;25.80;42.80;;;;;;5153656;27;20399;-54
2023/08/04 09:09:42;;;;;;;5.50;3.77;;;25.90;42.60;;;;;;5153374;27;20427;-51
2023/08/04 09:12:09;;;;;;;9.73;3.50;;;25.90;42.30;;;;;;5153627;27;20185;-51
2023/08/04 09:14:55;;;;;;;8.60;3.50;;;26.00;43.00;;;;;;5153457;27;20451;-53
2023/08/04 09:17:35;;;;;;;4.80;4.00;;;26.10;43.00;;;;;;5153748;27;20447;-51
2023/08/04 09:20:03;;;;;;;4.30;3.23;;;26.20;43.00;;;;;;5153300;27;20992;-54
2023/08/04 09:22:31;;;;;;;3.10;2.80;;;26.20;41.80;;;;;;5153472;27;20506;-51
2023/08/04 09:25:02;;;;;;;3.33;2.90;;;26.30;40.90;;;;;;5152338;27;20506;-53
2023/08/04 09:27:41;;;;;;;5.53;3.43;;;26.30;41.70;;;;;;5153539;27;20403;-54
2023/08/04 09:30:09;;;;;;;4.77;3.97;;;26.30;42.40;;;;;;5153528;27;20422;-51
2023/08/04 09:32:42;;;;;;;4.40;3.33;;;26.40;42.30;;;;;;5153357;27;20490;-51
2023/08/04 09:35:08;;;;;;;4.20;2.80;;;26.40;41.80;;;;;;5152278;27;20399;-54
2023/08/04 09:37:36;;;;;;;3.50;2.50;;;26.40;41.90;;;;;;5153687;27;20425;-51
2023/08/04 09:40:04;;;;;;;4.20;3.00;;;26.40;42.00;;;;;;5153142;27;20543;-51
2023/08/04 09:42:30;;;;;;;3.30;3.00;;;26.40;41.50;;;;;;5153432;27;20408;-53
2023/08/04 09:44:57;;;;;;;2.87;2.57;;;26.40;42.10;;;;;;5153376;27;20440;-53
2023/08/04 09:47:24;;;;;;;4.70;3.57;;;26.30;42.50;;;;;;5153235;27;20427;-51
2023/08/04 09:49:50;;;;;;;4.13;2.77;;;26.30;42.30;;;;;;5153075;27;20822;-50
2023/08/04 09:52:21;;;;;;;3.10;2.40;;;26.30;42.90;;;;;;5153223;27;20986;-51
2023/08/04 09:54:47;;;;;;;6.30;3.10;;;26.30;42.50;;;;;;5153641;27;20404;-51
2023/08/04 09:57:16;;;;;;;3.50;2.50;;;26.30;42.10;;;;;;5151992;27;20403;-53
2023/08/04 09:59:42;;;;;;;3.43;2.53;;;26.40;42.00;;;;;;5152742;27;20443;-52
2023/08/04 10:02:09;;;;;;;4.30;3.70;;;26.30;42.50;;;;;;5153567;27;20450;-53
2023/08/04 10:04:36;;;;;;;3.93;3.23;;;26.30;42.00;;;;;;5153194;27;20410;-54
2023/08/04 10:07:03;;;;;;;2.60;2.40;;;26.30;42.50;;;;;;5153260;27;20399;-51
2023/08/04 10:09:31;;;;;;;2.70;1.83;;;26.20;42.90;;;;;;5152971;27;20517;-51
2023/08/04 10:11:58;;;;;;;4.13;2.70;;;26.20;42.80;;;;;;5153047;27;20446;-53
2023/08/04 10:14:24;;;;;;;3.10;2.30;;;26.20;42.60;;;;;;5152996;27;20399;-51
2023/08/04 10:16:51;;;;;;;4.77;2.50;;;26.10;41.80;;;;;;5153089;27;20396;-52
2023/08/04 10:19:20;;;;;;;5.57;2.23;;;26.10;42.30;;;;;;5153129;27;20407;-50
2023/08/04 10:21:46;;;;;;;4.17;2.73;;;26.00;43.10;;;;;;5153001;27;20395;-54
2023/08/04 10:24:13;;;;;;;2.87;2.50;;;25.90;42.40;;;;;;5153043;27;20410;-50
2023/08/04 10:26:47;;;;;;;2.83;1.80;;;25.90;42.70;;;;;;5153753;27;20165;-51
2023/08/04 10:29:13;;;;;;;3.40;2.53;;;25.80;42.70;;;;;;5156456;27;20763;-53
2023/08/04 10:31:58;;;;;;;2.80;2.30;;;25.60;43.00;;;;;;5156665;27;20450;-51
2023/08/04 10:34:25;;;;;;;2.87;2.60;;;25.60;44.50;;;;;;5156566;27;20399;-52
2023/08/04 10:37:14;;;;;;;2.83;1.90;;;25.50;45.30;;;;;;5156451;27;20394;-51
2023/08/04 10:39:44;;;;;;;3.17;2.60;;;25.50;45.60;;;;;;5156219;27;20447;-52
2023/08/04 10:42:14;;;;;;;3.90;3.37;;;25.50;45.70;;;;;;5156651;27;20407;-53
2023/08/04 10:44:52;;;;;;;4.10;3.70;;;25.50;45.60;;;;;;5156351;27;20904;-54
2023/08/04 10:47:42;;;;;;;5.00;4.53;;;25.60;45.20;;;;;;5156633;27;20498;-53
2023/08/04 10:50:08;;;;;;;3.23;2.50;;;25.60;45.00;;;;;;5156050;27;20447;-53
2023/08/04 10:52:36;;;;;;;3.93;2.67;;;25.70;45.60;;;;;;5156123;27;20495;-51
2023/08/04 10:55:04;;;;;;;2.73;2.43;;;25.80;45.60;;;;;;5156223;27;20490;-51
2023/08/04 10:57:34;;;;;;;2.57;2.37;;;25.90;44.60;;;;;;5156255;27;20431;-50
2023/08/04 11:00:01;;;;;;;2.80;1.90;;;26.00;45.00;;;;;;5155737;27;20442;-50
2023/08/04 11:02:27;;;;;;;2.13;1.93;;;26.20;45.20;;;;;;5156084;27;20411;-52
2023/08/04 11:04:54;;;;;;;2.77;2.20;;;26.30;44.70;;;;;;5156182;27;20427;-54
2023/08/04 11:07:22;;;;;;;2.37;2.00;;;26.50;43.90;;;;;;5156035;27;20407;-51
2023/08/04 11:09:49;;;;;;;2.60;2.03;;;26.60;43.30;;;;;;5155666;27;20932;-51
2023/08/04 11:12:16;;;;;;;2.43;1.70;;;26.60;43.40;;;;;;5155809;27;20793;-53
2023/08/04 11:14:42;;;;;;;6.57;2.33;;;26.70;43.30;;;;;;5155725;27;20765;-51
2023/08/04 11:17:17;;;;;;;2.77;2.10;;;26.70;43.60;;;;;;5156042;27;20757;-51
2023/08/04 11:19:44;;;;;;;2.23;1.80;;;26.70;42.10;;;;;;5155624;27;20426;-54
2023/08/04 11:22:13;;;;;;;1.90;1.50;;;26.70;41.00;;;;;;5155675;27;20871;-50
2023/08/04 11:24:40;;;;;;;1.80;1.40;;;26.70;41.30;;;;;;5155595;27;20407;-52
2023/08/04 11:27:07;;;;;;;1.90;1.80;;;26.70;42.30;;;;;;5155642;27;20469;-51
2023/08/04 11:29:33;;;;;;;2.30;2.10;;;26.70;42.50;;;;;;5155190;27;20967;-50
2023/08/04 11:31:59;;;;;;;2.03;1.73;;;26.70;42.80;;;;;;5155434;27;20458;-53
2023/08/04 11:34:26;;;;;;;2.60;1.80;;;26.90;42.30;;;;;;5155424;27;20190;-50
2023/08/04 11:36:52;;;;;;;2.13;1.93;;;27.00;43.30;;;;;;5155354;27;20392;-51
2023/08/04 11:39:18;;;;;;;2.07;1.57;;;27.10;41.70;;;;;;5154758;27;20402;-55
2023/08/04 11:41:44;;;;;;;2.00;1.80;;;27.20;40.60;;;;;;5155380;27;20162;-51
2023/08/04 11:44:10;;;;;;;2.33;1.70;;;27.40;41.20;;;;;;5153857;27;20513;-52
2023/08/04 11:46:37;;;;;;;1.50;1.20;;;27.60;41.40;;;;;;5155398;27;20499;-52
2023/08/04 11:49:08;;;;;;;1.70;1.20;;;27.90;41.80;;;;;;5155103;27;20802;-51
2023/08/04 11:51:34;;;;;;;2.20;1.33;;;28.10;39.80;;;;;;5154772;27;20447;-54
2023/08/04 11:53:59;;;;;;;1.60;1.00;;;28.10;39.30;;;;;;5155449;27;20844;-52
2023/08/04 11:56:37;;;;;;;1.70;1.23;;;28.10;37.70;;;;;;5154915;27;20977;-52
2023/08/04 11:59:12;;;;;;;1.80;1.27;;;28.10;37.30;;;;;;5155042;27;20173;-55
2023/08/04 12:01:38;;;;;;;1.97;1.50;;;27.90;37.70;;;;;;5155121;27;20419;-51
2023/08/04 12:04:22;;;;;;;2.23;1.00;;;27.90;37.90;;;;;;5153533;27;20814;-54
2023/08/04 12:07:03;;;;;;;2.43;1.53;;;28.00;39.00;;;;;;5154647;27;20835;-51
2023/08/04 12:09:30;;;;;;;1.90;1.37;;;28.00;39.10;;;;;;5154770;27;20391;-51
2023/08/04 12:11:56;;;;;;;1.70;1.30;;;28.00;39.90;;;;;;5154506;27;20495;-54
2023/08/04 12:14:22;;;;;;;2.53;2.30;;;27.80;38.60;;;;;;5154583;27;20409;-50
2023/08/04 12:17:00;;;;;;;3.10;2.80;;;27.70;37.80;;;;;;5154866;27;20410;-52
2023/08/04 12:19:30;;;;;;;4.00;3.20;;;27.50;38.30;;;;;;5154254;27;20450;-54
2023/08/04 12:21:59;;;;;;;3.77;2.50;;;27.40;39.10;;;;;;5154439;27;20802;-52
2023/08/04 12:24:26;;;;;;;3.80;2.57;;;27.20;40.00;;;;;;5154422;27;20399;-51
2023/08/04 12:26:53;;;;;;;3.53;1.93;;;27.20;40.60;;;;;;5154399;27;20892;-51
2023/08/04 12:29:19;;;;;;;5.40;3.00;;;27.30;41.30;;;;;;5154329;27;20403;-53
2023/08/04 12:31:45;;;;;;;2.00;1.70;;;27.60;42.10;;;;;;5154123;27;20441;-51
2023/08/04 12:34:11;;;;;;;2.37;1.90;;;27.80;40.40;;;;;;5154316;27;20404;-50
2023/08/04 12:36:38;;;;;;;3.13;2.20;;;28.00;40.40;;;;;;5154167;27;20414;-54
2023/08/04 12:39:05;;;;;;;3.57;2.73;;;28.10;40.10;;;;;;5154105;27;20406;-54
2023/08/04 12:41:34;;;;;;;2.80;2.40;;;28.20;38.50;;;;;;5154089;27;20469;-52
2023/08/04 12:44:00;;;;;;;2.83;2.40;;;28.10;38.10;;;;;;5154063;27;20415;-54
2023/08/04 12:46:26;;;;;;;4.13;2.43;;;28.00;38.50;;;;;;5153871;27;20445;-53